createdAt,value
2023-03-25T05:36:37.520Z,8.20
2023-03-25T05:41:39.396Z,8.30
2023-03-25T05:46:41.279Z,8.30
2023-03-25T05:51:45.110Z,8.30
2023-03-25T05:56:47.216Z,8.30
2023-03-25T06:01:50.051Z,8.30
2023-03-25T06:06:53.730Z,8.30
2023-03-25T06:11:55.569Z,8.30
2023-03-25T06:16:57.447Z,8.40
2023-03-25T06:21:59.245Z,8.40
2023-03-25T06:27:01.171Z,8.40
2023-03-25T06:32:04.112Z,8.40
2023-03-25T06:37:06.497Z,8.50
2023-03-25T06:42:08.472Z,8.50
2023-03-25T06:47:10.269Z,8.60
2023-03-25T06:52:12.426Z,8.60
2023-03-25T06:57:14.235Z,8.70
2023-03-25T07:02:16.122Z,8.70
2023-03-25T07:07:17.958Z,8.80
2023-03-25T07:12:19.852Z,8.80
2023-03-25T07:17:22.802Z,8.80
2023-03-25T07:22:25.001Z,8.80
2023-03-25T07:27:26.892Z,8.70
2023-03-25T07:32:46.022Z,8.70
2023-03-25T07:37:48.940Z,8.70
2023-03-25T07:42:51.151Z,8.70
2023-03-25T07:47:56.095Z,8.70
2023-03-25T07:52:57.991Z,8.80
2023-03-25T07:58:01.985Z,8.80
2023-03-25T08:03:04.121Z,8.80
2023-03-25T08:08:06.545Z,8.80
2023-03-25T08:13:08.633Z,8.80
2023-03-25T08:18:10.458Z,8.70
2023-03-25T08:23:12.652Z,8.80
2023-03-25T08:28:23.052Z,8.80
2023-03-25T08:33:34.301Z,8.80
2023-03-25T08:38:36.406Z,8.80
2023-03-25T08:43:38.449Z,8.80
2023-03-25T08:48:40.485Z,8.90
2023-03-25T08:53:42.400Z,8.90
2023-03-25T08:58:44.337Z,9.00
2023-03-25T09:03:46.779Z,9.20
2023-03-25T09:08:50.210Z,9.30
2023-03-25T09:13:52.368Z,9.40
2023-03-25T09:18:54.212Z,9.60
2023-03-25T09:23:56.196Z,9.70
2023-03-25T09:28:58.133Z,9.80
2023-03-25T09:33:59.944Z,9.80
2023-03-25T09:39:02.008Z,9.80
2023-03-25T09:44:23.958Z,9.90
2023-03-25T09:49:39.229Z,9.90
2023-03-25T09:54:50.715Z,9.90
2023-03-25T09:59:53.128Z,9.90
2023-03-25T10:05:13.712Z,9.90
2023-03-25T10:10:24.514Z,9.80
2023-03-25T10:15:35.409Z,9.60
2023-03-25T10:21:07.757Z,9.60
2023-03-25T10:26:14.882Z,9.50
2023-03-25T10:31:18.073Z,9.50
2023-03-25T10:36:26.583Z,9.50
2023-03-25T10:41:36.998Z,9.60
2023-03-25T10:46:49.179Z,9.70
2023-03-25T10:51:54.719Z,9.80
2023-03-25T10:56:59.742Z,10.00
2023-03-25T11:02:04.352Z,10.20
2023-03-25T11:07:16.573Z,10.30
2023-03-25T11:12:27.383Z,10.50
2023-03-25T11:17:35.348Z,10.60
2023-03-25T11:22:38.614Z,10.70
2023-03-25T11:27:52.158Z,10.80
2023-03-25T11:32:59.304Z,10.90
2023-03-25T11:38:02.833Z,11.00
2023-03-25T11:43:04.830Z,11.20
2023-03-25T11:48:17.430Z,11.40
2023-03-25T11:53:20.033Z,11.30
2023-03-25T11:58:27.481Z,11.30
2023-03-25T12:03:33.413Z,11.20
2023-03-25T12:08:57.240Z,10.70
2023-03-25T12:13:59.072Z,10.30
2023-03-25T12:19:22.715Z,10.70
2023-03-25T12:24:46.413Z,11.10
2023-03-25T12:29:53.551Z,11.30
2023-03-25T12:35:14.628Z,11.40
2023-03-25T12:40:27.716Z,11.30
2023-03-25T12:45:41.024Z,11.40
2023-03-25T12:51:01.215Z,11.60
2023-03-25T12:56:33.883Z,11.70
2023-03-25T13:01:44.815Z,11.70
2023-03-25T13:06:53.838Z,11.60
2023-03-25T13:12:22.914Z,11.40
2023-03-25T13:17:57.854Z,11.30
2023-03-25T13:23:02.252Z,11.20
2023-03-25T13:28:06.591Z,11.40
2023-03-25T13:33:35.268Z,11.40
2023-03-25T13:38:52.631Z,11.60
2023-03-25T13:44:01.609Z,12.20
2023-03-25T13:49:07.834Z,12.50
2023-03-25T13:54:16.168Z,12.70
2023-03-25T13:59:40.459Z,13.10
2023-03-25T14:05:01.339Z,13.50
2023-03-25T14:10:12.048Z,13.80
2023-03-25T14:15:15.726Z,14.30
2023-03-25T14:20:24.493Z,14.60
2023-03-25T14:25:40.645Z,14.50
2023-03-25T14:30:43.245Z,14.00
2023-03-25T14:35:47.344Z,13.80
2023-03-25T14:41:02.726Z,13.80
2023-03-25T14:46:19.092Z,13.90
2023-03-25T14:51:42.777Z,14.00
2023-03-25T14:56:56.944Z,14.00
2023-03-25T15:02:21.851Z,13.90
2023-03-25T15:07:46.060Z,13.70
2023-03-25T15:12:52.851Z,13.40
2023-03-25T15:17:54.739Z,13.30
2023-03-25T15:23:33.131Z,13.20
2023-03-25T15:28:44.484Z,13.10
2023-03-25T15:34:04.122Z,13.10
2023-03-25T15:39:15.036Z,13.00
2023-03-25T15:44:35.353Z,12.90
2023-03-25T15:49:55.089Z,12.90
2023-03-25T15:55:11.004Z,12.80
2023-03-25T16:00:18.436Z,12.70
2023-03-25T16:05:21.781Z,12.60
2023-03-25T16:10:33.058Z,12.60
2023-03-25T16:15:36.056Z,12.60
2023-03-25T16:20:38.018Z,12.50
2023-03-25T16:25:41.623Z,12.50
2023-03-25T16:30:44.900Z,12.50
2023-03-25T16:35:52.357Z,12.40
2023-03-25T16:41:07.794Z,12.40
2023-03-25T16:46:11.190Z,12.40
2023-03-25T16:51:15.663Z,12.30
2023-03-25T16:56:17.409Z,12.30
2023-03-25T17:01:21.798Z,12.30
2023-03-25T17:06:28.706Z,12.20
2023-03-25T17:11:31.672Z,12.20
2023-03-25T17:16:34.108Z,12.20
2023-03-25T17:21:36.396Z,12.10
2023-03-25T17:26:56.213Z,12.20
2023-03-25T17:31:59.216Z,12.20
2023-03-25T17:37:03.946Z,12.10
2023-03-25T17:42:07.260Z,12.10
2023-03-25T17:47:14.996Z,12.10
2023-03-25T17:52:17.572Z,12.10
2023-03-25T17:57:19.629Z,12.10
2023-03-25T18:02:21.433Z,12.00
2023-03-25T18:07:23.375Z,12.00
2023-03-25T19:02:36.928Z,11.20
